Time;durP1;ratioP1;P1;durP2;ratioP2;P2;SDS_P1;SDS_P2;PMS_P1;PMS_P2;Temp;Humidity;BMP_temperature;BMP_pressure;BME280_temperature;BME280_humidity;BME280_pressure;Samples;Min_cycle;Max_cycle;Signal;HPM_P1;HPM_P2
2023/03/02 00:02:16;;;;;;;10.23;4.90;;;;;;;5.82;nan;-23979.16;5011445;28;20595;-70
2023/03/02 00:04:49;;;;;;;8.47;5.23;;;;;;;5.73;nan;-23976.75;5012107;28;20219;-70
2023/03/02 00:07:19;;;;;;;8.43;4.57;;;;;;;5.81;nan;-23979.00;5012433;28;20259;-70
2023/03/02 00:09:45;;;;;;;20.60;5.10;;;;;;;6.03;nan;-23985.13;5011812;28;20290;-70
2023/03/02 00:12:12;;;;;;;10.87;5.33;;;;;;;5.57;nan;-23972.19;5011692;28;20184;-70
2023/03/02 00:14:37;;;;;;;8.37;4.97;;;;;;;5.90;nan;-23981.44;5010256;28;20510;-70
2023/03/02 00:17:04;;;;;;;19.10;5.17;;;;;;;5.86;nan;-23980.28;5011605;28;20176;-70
2023/03/02 00:19:29;;;;;;;11.47;4.43;;;;;;;5.66;nan;-23974.75;5011788;28;20163;-71
2023/03/02 00:21:55;;;;;;;7.03;4.73;;;;;;;5.65;nan;-23974.47;5011891;28;20259;-71
2023/03/02 00:24:21;;;;;;;9.47;5.33;;;;;;;5.89;nan;-23981.28;5011695;28;20187;-70
2023/03/02 00:26:46;;;;;;;9.50;4.60;;;;;;;5.61;nan;-23973.47;5011479;28;20176;-70
2023/03/02 00:29:12;;;;;;;6.37;3.70;;;;;;;5.82;nan;-23979.31;5013534;28;20175;-70
2023/03/02 00:31:37;;;;;;;5.97;4.13;;;;;;;5.73;nan;-23976.75;5011268;28;20187;-70
2023/03/02 00:34:03;;;;;;;7.30;4.80;;;;;;;5.70;nan;-23976.03;5011209;28;20587;-71
2023/03/02 00:36:28;;;;;;;7.30;4.37;;;;;;;5.61;nan;-23973.47;5010412;28;20196;-70
2023/03/02 00:38:54;;;;;;;9.80;4.30;;;;;;;5.63;nan;-23974.03;5011078;28;20674;-71
2023/03/02 00:41:20;;;;;;;11.83;5.33;;;;;;;5.57;nan;-23972.19;5026595;28;20191;-71
2023/03/02 00:43:46;;;;;;;15.93;4.30;;;;;;;5.33;nan;-23965.50;5011177;28;20183;-69
2023/03/02 00:46:14;;;;;;;8.97;4.93;;;;;;;5.25;nan;-23963.38;5011720;28;20176;-70
2023/03/02 00:48:39;;;;;;;5.90;3.73;;;;;;;5.59;nan;-23972.75;5011020;28;20255;-69
2023/03/02 00:51:06;;;;;;;7.37;4.63;;;;;;;5.47;nan;-23969.34;5011194;28;20263;-69
2023/03/02 00:53:32;;;;;;;12.67;3.80;;;;;;;5.71;nan;-23976.31;5011968;28;20232;-69
2023/03/02 00:55:58;;;;;;;8.07;4.30;;;;;;;5.52;nan;-23970.91;5014652;28;20667;-69
2023/03/02 00:58:25;;;;;;;7.80;4.63;;;;;;;5.22;nan;-23962.53;5014661;28;20233;-70
2023/03/02 01:00:50;;;;;;;9.73;5.10;;;;;;;5.23;nan;-23962.81;5015020;28;20172;-70
2023/03/02 01:03:16;;;;;;;7.33;4.13;;;;;;;5.77;nan;-23977.88;5014743;28;20552;-71
2023/03/02 01:05:41;;;;;;;6.63;3.30;;;;;;;5.43;nan;-23968.34;5013435;28;20190;-69
2023/03/02 01:08:06;;;;;;;7.93;4.37;;;;;;;5.27;nan;-23963.94;5013395;28;20191;-69
2023/03/02 01:10:32;;;;;;;6.97;3.93;;;;;;;5.59;nan;-23972.75;5014351;28;20286;-71
2023/03/02 01:12:58;;;;;;;11.43;4.50;;;;;;;5.32;nan;-23965.38;5013940;28;20172;-70
2023/03/02 01:15:24;;;;;;;6.00;3.93;;;;;;;5.62;nan;-23973.75;5014963;28;20569;-69
2023/03/02 01:17:49;;;;;;;9.37;4.93;;;;;;;5.40;nan;-23967.38;5013357;28;20206;-69
2023/03/02 01:20:16;;;;;;;8.00;4.03;;;;;;;5.12;nan;-23959.69;5014321;28;20643;-69
2023/03/02 01:22:43;;;;;;;9.90;4.40;;;;;;;5.51;nan;-23970.63;5014439;28;20211;-69
2023/03/02 01:25:09;;;;;;;12.13;4.03;;;;;;;5.22;nan;-23962.53;5014535;28;20263;-69
2023/03/02 01:27:34;;;;;;;6.40;4.17;;;;;;;5.41;nan;-23967.78;5014321;28;20180;-69
2023/03/02 01:30:00;;;;;;;6.73;4.17;;;;;;;4.99;nan;-23956.00;5015298;28;20242;-70
2023/03/02 01:32:25;;;;;;;8.23;3.67;;;;;;;5.24;nan;-23963.09;5016006;28;20665;-70
2023/03/02 01:34:51;;;;;;;3.53;3.03;;;;;;;5.12;nan;-23959.53;5014351;28;20312;-70
2023/03/02 01:37:16;;;;;;;7.20;4.07;;;;;;;5.12;nan;-23959.53;5014228;28;20184;-70
2023/03/02 01:39:41;;;;;;;5.40;3.40;;;;;;;5.44;nan;-23968.63;5012622;28;20180;-70
2023/03/02 01:42:07;;;;;;;6.40;3.30;;;;;;;5.04;nan;-23957.41;5012667;28;20211;-70
2023/03/02 01:44:42;;;;;;;18.10;4.97;;;;;;;5.20;nan;-23961.97;5013981;28;20179;-69
2023/03/02 01:47:27;;;;;;;10.23;3.80;;;;;;;5.32;nan;-23965.38;5014249;28;20164;-70
2023/03/02 01:49:59;;;;;;;4.47;3.17;;;;;;;5.12;nan;-23959.69;5014224;28;20172;-70
2023/03/02 01:52:27;;;;;;;5.53;3.67;;;;;;;5.13;nan;-23959.81;5011242;28;20176;-70
2023/03/02 01:54:57;;;;;;;9.67;4.70;;;;;;;5.25;nan;-23963.25;5015613;28;20242;-70
2023/03/02 01:57:27;;;;;;;3.53;3.07;;;;;;;5.25;nan;-23963.25;5033347;28;20229;-71
2023/03/02 02:00:00;;;;;;;8.40;3.97;;;;;;;4.96;nan;-23955.00;5033000;28;20552;-69
2023/03/02 02:02:26;;;;;;;5.43;3.97;;;;;;;5.09;nan;-23958.69;5033171;28;20237;-69
2023/03/02 02:04:53;;;;;;;6.77;4.07;;;;;;;5.36;nan;-23966.22;5032911;28;20179;-70
2023/03/02 02:07:19;;;;;;;5.37;3.97;;;;;;;5.31;nan;-23964.94;5032832;28;20175;-69
2023/03/02 02:09:48;;;;;;;6.10;3.73;;;;;;;5.45;nan;-23968.94;5033077;28;20182;-70
2023/03/02 02:12:17;;;;;;;5.87;4.20;;;;;;;4.99;nan;-23956.00;5032971;28;20186;-71
2023/03/02 02:14:44;;;;;;;6.33;3.83;;;;;;;5.51;nan;-23970.63;5033214;28;20190;-70
2023/03/02 02:17:11;;;;;;;4.83;3.30;;;;;;;5.49;nan;-23969.91;5048057;28;20274;-70
2023/03/02 02:20:08;;;;;;;7.10;3.40;;;;;;;5.60;nan;-23973.03;5032792;28;20250;-70
2023/03/02 02:22:58;;;;;;;6.13;3.53;;;;;;;5.62;nan;-23973.63;5032824;28;20175;-70
2023/03/02 02:25:51;;;;;;;6.23;3.80;;;;;;;5.23;nan;-23962.66;5031661;28;20559;-70
2023/03/02 02:28:23;;;;;;;6.17;3.93;;;;;;;5.61;nan;-23973.47;5031277;28;20207;-70
2023/03/02 02:30:54;;;;;;;7.53;3.97;;;;;;;5.71;nan;-23976.16;5032871;28;20673;-70
2023/03/02 02:33:24;;;;;;;7.83;4.87;;;;;;;5.64;nan;-23974.19;5034136;28;20633;-70
2023/03/02 02:35:53;;;;;;;17.53;4.77;;;;;;;5.65;nan;-23974.47;5033279;28;20279;-70
2023/03/02 02:38:20;;;;;;;6.87;4.57;;;;;;;5.19;nan;-23961.66;5032793;28;20185;-70
2023/03/02 02:40:58;;;;;;;8.20;4.10;;;;;;;5.63;nan;-23974.03;5032825;28;20168;-69
2023/03/02 02:43:26;;;;;;;4.97;3.43;;;;;;;4.96;nan;-23955.13;5032540;28;20198;-68
2023/03/02 02:45:55;;;;;;;7.50;4.23;;;;;;;5.31;nan;-23965.09;5032600;28;20265;-69
2023/03/02 02:48:23;;;;;;;6.37;4.13;;;;;;;5.48;nan;-23969.63;5032504;28;20254;-69
2023/03/02 02:50:59;;;;;;;7.93;4.43;;;;;;;4.89;nan;-23953.13;5032463;28;20187;-70
2023/03/02 02:53:57;;;;;;;7.20;3.77;;;;;;;5.44;nan;-23968.50;5032435;28;20215;-70
2023/03/02 02:56:25;;;;;;;12.50;4.13;;;;;;;5.47;nan;-23969.34;5032879;28;20191;-69
2023/03/02 02:58:54;;;;;;;5.67;3.50;;;;;;;5.48;nan;-23969.63;5032247;28;20534;-70
2023/03/02 03:01:24;;;;;;;6.03;3.87;;;;;;;5.50;nan;-23970.22;5032162;28;20204;-70
2023/03/02 03:04:00;;;;;;;6.13;4.00;;;;;;;5.43;nan;-23968.34;5032576;28;20626;-70
2023/03/02 03:06:36;;;;;;;4.43;3.27;;;;;;;5.49;nan;-23969.91;5033011;28;20194;-70
2023/03/02 03:09:04;;;;;;;3.37;2.60;;;;;;;5.80;nan;-23978.72;5032260;28;20163;-70
2023/03/02 03:11:32;;;;;;;5.60;3.50;;;;;;;5.41;nan;-23967.66;5032178;28;20282;-70
2023/03/02 03:14:04;;;;;;;5.67;4.10;;;;;;;5.73;nan;-23976.75;5031901;28;20203;-70
2023/03/02 03:16:31;;;;;;;6.40;3.90;;;;;;;5.23;nan;-23962.66;5031460;28;20199;-70
2023/03/02 03:19:05;;;;;;;11.30;4.00;;;;;;;5.54;nan;-23971.34;5032483;28;20179;-72
2023/03/02 03:21:31;;;;;;;14.83;3.73;;;;;;;5.57;nan;-23972.34;5032451;28;20203;-70
2023/03/02 03:23:56;;;;;;;4.87;3.20;;;;;;;5.36;nan;-23966.22;5031901;28;20596;-68
2023/03/02 03:26:26;;;;;;;6.10;3.47;;;;;;;5.48;nan;-23969.78;5030647;28;20171;-70
2023/03/02 03:28:52;;;;;;;7.07;3.27;;;;;;;4.89;nan;-23953.28;5031823;28;20183;-70
2023/03/02 03:31:18;;;;;;;5.50;3.63;;;;;;;5.23;nan;-23962.66;5030616;28;20175;-70
2023/03/02 03:33:43;;;;;;;13.53;4.27;;;;;;;5.16;nan;-23960.81;5031871;28;20199;-70
2023/03/02 03:36:09;;;;;;;7.00;4.60;;;;;;;5.50;nan;-23970.22;5034620;28;20316;-70
2023/03/02 03:38:34;;;;;;;5.23;4.13;;;;;;;5.50;nan;-23970.22;5032053;28;20191;-70
2023/03/02 03:40:59;;;;;;;6.10;4.17;;;;;;;5.45;nan;-23968.78;5031788;28;20650;-70
2023/03/02 03:43:25;;;;;;;4.93;3.27;;;;;;;5.46;nan;-23969.22;5031755;28;20648;-71
2023/03/02 03:45:50;;;;;;;6.47;4.43;;;;;;;5.06;nan;-23957.97;5031734;28;20164;-68
2023/03/02 03:48:16;;;;;;;8.27;4.50;;;;;;;5.47;nan;-23969.50;5031969;28;20168;-70
2023/03/02 03:50:43;;;;;;;9.17;5.23;;;;;;;5.17;nan;-23960.97;5031683;28;20274;-70
2023/03/02 03:53:08;;;;;;;9.30;5.27;;;;;;;5.17;nan;-23961.09;5031463;28;20650;-70
2023/03/02 03:55:33;;;;;;;5.63;3.77;;;;;;;5.33;nan;-23965.66;5029813;28;20210;-70
2023/03/02 03:57:59;;;;;;;9.33;4.57;;;;;;;5.19;nan;-23961.66;5031898;28;20307;-70
2023/03/02 04:00:24;;;;;;;14.50;6.00;;;;;;;4.95;nan;-23954.72;5031659;28;20209;-68
2023/03/02 04:02:50;;;;;;;7.93;4.50;;;;;;;5.51;nan;-23970.63;5046880;28;20198;-69
2023/03/02 04:05:16;;;;;;;16.07;5.20;;;;;;;5.52;nan;-23970.78;5030222;28;20563;-70
2023/03/02 04:07:41;;;;;;;6.80;4.33;;;;;;;5.55;nan;-23971.63;5031795;28;20233;-69
2023/03/02 04:10:09;;;;;;;7.27;4.50;;;;;;;5.31;nan;-23965.09;5030832;28;20657;-70
2023/03/02 04:12:37;;;;;;;9.27;4.90;;;;;;;5.25;nan;-23963.25;5031680;28;20170;-70
2023/03/02 04:15:05;;;;;;;7.37;4.20;;;;;;;5.14;nan;-23960.25;5030573;28;20230;-69
2023/03/02 04:17:31;;;;;;;7.70;4.57;;;;;;;5.31;nan;-23964.94;5025669;28;20181;-72
2023/03/02 04:19:58;;;;;;;5.17;3.97;;;;;;;5.17;nan;-23960.97;4996824;28;20210;-70
2023/03/02 04:22:24;;;;;;;8.90;4.23;;;;;;;5.38;nan;-23966.94;4997739;28;20617;-70
2023/03/02 04:24:50;;;;;;;6.87;3.83;;;;;;;5.22;nan;-23962.38;4996910;28;20176;-70
2023/03/02 04:27:16;;;;;;;6.67;4.27;;;;;;;5.23;nan;-23962.81;4997113;28;20187;-70
2023/03/02 04:29:42;;;;;;;5.70;3.97;;;;;;;5.36;nan;-23966.38;5001875;28;20521;-71
2023/03/02 04:32:08;;;;;;;19.60;5.13;;;;;;;5.37;nan;-23966.66;5000926;28;20176;-70
2023/03/02 04:34:34;;;;;;;6.80;3.13;;;;;;;5.41;nan;-23967.66;5000647;28;20549;-70
2023/03/02 04:37:00;;;;;;;11.73;5.27;;;;;;;5.22;nan;-23962.53;5000817;28;20717;-70
2023/03/02 04:39:26;;;;;;;6.27;4.10;;;;;;;5.56;nan;-23971.91;5003697;28;20275;-70
2023/03/02 04:41:52;;;;;;;8.43;5.37;;;;;;;5.44;nan;-23968.63;5000488;28;20663;-71
2023/03/02 04:44:19;;;;;;;9.07;4.20;;;;;;;5.06;nan;-23957.97;5016083;28;20210;-70
2023/03/02 04:47:09;;;;;;;17.37;4.83;;;;;;;5.44;nan;-23968.50;5004272;28;20192;-70
2023/03/02 04:49:56;;;;;;;8.90;4.23;;;;;;;5.49;nan;-23970.06;5003381;28;20586;-71
2023/03/02 04:52:22;;;;;;;5.90;3.83;;;;;;;5.30;nan;-23964.66;5000291;28;20662;-70
2023/03/02 04:55:00;;;;;;;4.57;3.63;;;;;;;5.43;nan;-23968.22;4999989;28;20219;-70
2023/03/02 04:57:26;;;;;;;6.80;4.10;;;;;;;5.33;nan;-23965.50;4999008;28;20214;-69
2023/03/02 04:59:52;;;;;;;6.90;4.10;;;;;;;5.15;nan;-23960.53;5000206;28;20268;-70
2023/03/02 05:02:17;;;;;;;5.53;4.17;;;;;;;5.16;nan;-23960.81;5000959;28;20678;-71
2023/03/02 05:04:42;;;;;;;7.57;4.37;;;;;;;5.18;nan;-23961.25;4999744;28;20177;-69
2023/03/02 05:07:08;;;;;;;7.37;4.53;;;;;;;5.55;nan;-23971.63;5000867;28;20651;-70
2023/03/02 05:09:33;;;;;;;9.90;5.13;;;;;;;5.40;nan;-23967.38;5000047;28;20184;-71
2023/03/02 05:12:00;;;;;;;5.53;4.10;;;;;;;5.41;nan;-23967.66;5001238;28;20542;-70
2023/03/02 05:14:26;;;;;;;12.63;4.83;;;;;;;5.27;nan;-23963.94;5008471;28;20176;-71
2023/03/02 05:16:53;;;;;;;5.70;4.27;;;;;;;5.71;nan;-23976.16;5009733;28;20222;-70
2023/03/02 05:19:18;;;;;;;4.77;3.43;;;;;;;5.33;nan;-23965.66;5011654;28;20278;-72
2023/03/02 05:21:44;;;;;;;7.17;4.27;;;;;;;5.25;nan;-23963.25;5008188;28;20369;-71
2023/03/02 05:24:10;;;;;;;8.53;4.80;;;;;;;5.41;nan;-23967.66;5013186;28;20243;-70
2023/03/02 05:26:36;;;;;;;6.13;4.17;;;;;;;5.21;nan;-23962.09;5013642;28;20210;-70
2023/03/02 05:29:02;;;;;;;8.90;4.07;;;;;;;5.33;nan;-23965.66;5012241;28;20227;-71
2023/03/02 05:31:35;;;;;;;7.33;4.20;;;;;;;5.11;nan;-23959.25;5012424;28;20555;-70
2023/03/02 05:34:03;;;;;;;6.00;3.60;;;;;;;5.30;nan;-23964.66;5014196;28;20247;-72
2023/03/02 05:36:28;;;;;;;8.30;5.23;;;;;;;5.28;nan;-23964.22;5013873;28;20210;-69
2023/03/02 05:38:54;;;;;;;10.40;5.03;;;;;;;5.10;nan;-23958.97;5012778;28;20287;-70
2023/03/02 05:41:19;;;;;;;8.13;4.87;;;;;;;5.18;nan;-23961.38;5016458;28;20567;-70
2023/03/02 05:43:44;;;;;;;7.73;4.10;;;;;;;5.21;nan;-23962.09;5012554;28;20169;-71
2023/03/02 05:46:11;;;;;;;9.03;4.47;;;;;;;5.36;nan;-23966.38;5013629;28;20180;-70
2023/03/02 05:48:37;;;;;;;6.20;4.03;;;;;;;5.29;nan;-23964.50;5013092;28;20191;-71
2023/03/02 05:51:02;;;;;;;6.53;4.43;;;;;;;5.46;nan;-23969.06;5013541;28;20180;-71
2023/03/02 05:53:28;;;;;;;7.17;4.53;;;;;;;5.25;nan;-23963.25;5013636;28;20223;-70
2023/03/02 05:55:53;;;;;;;9.23;4.50;;;;;;;5.53;nan;-23971.06;5013850;28;20200;-71
2023/03/02 05:58:19;;;;;;;7.87;4.63;;;;;;;5.50;nan;-23970.22;5011895;28;20209;-72
2023/03/02 06:00:46;;;;;;;8.23;4.63;;;;;;;5.51;nan;-23970.63;5013526;28;20171;-70
2023/03/02 06:03:12;;;;;;;5.33;4.00;;;;;;;5.74;nan;-23977.03;5013696;28;20724;-70
2023/03/02 06:05:38;;;;;;;8.17;4.57;;;;;;;5.54;nan;-23971.47;5013316;28;20208;-69
2023/03/02 06:08:04;;;;;;;6.13;4.43;;;;;;;5.36;nan;-23966.22;5012945;28;20241;-69
2023/03/02 06:10:30;;;;;;;7.83;4.30;;;;;;;5.52;nan;-23970.91;5012674;28;20639;-70
2023/03/02 06:12:56;;;;;;;8.33;5.00;;;;;;;5.40;nan;-23967.38;5011147;28;20190;-70
2023/03/02 06:15:22;;;;;;;9.37;5.00;;;;;;;5.40;nan;-23967.38;5011407;28;20682;-71
2023/03/02 06:17:47;;;;;;;12.17;4.90;;;;;;;5.29;nan;-23964.38;5012631;28;20208;-70
2023/03/02 06:20:14;;;;;;;6.97;4.70;;;;;;;5.61;nan;-23973.47;5010545;28;20226;-69
2023/03/02 06:22:44;;;;;;;10.40;4.73;;;;;;;5.67;nan;-23975.03;5012435;28;20187;-71
2023/03/02 06:25:13;;;;;;;7.13;4.63;;;;;;;5.50;nan;-23970.22;5013459;28;20245;-70
2023/03/02 06:27:39;;;;;;;7.67;4.40;;;;;;;5.45;nan;-23968.78;5013167;28;20212;-71
2023/03/02 06:30:07;;;;;;;7.07;4.67;;;;;;;5.45;nan;-23968.94;5012599;28;20187;-70
2023/03/02 06:32:34;;;;;;;7.73;4.83;;;;;;;5.21;nan;-23962.25;5012867;28;20181;-71
2023/03/02 06:35:00;;;;;;;8.13;5.23;;;;;;;5.64;nan;-23974.19;5013059;28;20186;-71
2023/03/02 06:37:27;;;;;;;8.70;5.43;;;;;;;5.79;nan;-23978.59;5012491;28;20171;-72
2023/03/02 06:39:54;;;;;;;7.00;4.83;;;;;;;5.89;nan;-23981.16;5011466;28;20190;-72
2023/03/02 06:42:19;;;;;;;9.23;4.33;;;;;;;5.48;nan;-23969.63;5012909;28;20182;-71
2023/03/02 06:44:45;;;;;;;11.30;4.27;;;;;;;5.68;nan;-23975.31;5014320;28;20635;-71
2023/03/02 06:47:11;;;;;;;7.97;4.50;;;;;;;5.35;nan;-23966.09;5046316;28;20187;-72
2023/03/02 06:49:36;;;;;;;10.27;4.37;;;;;;;5.61;nan;-23973.47;5012331;28;20176;-72
2023/03/02 06:52:01;;;;;;;8.97;4.93;;;;;;;5.52;nan;-23970.91;5012634;28;20184;-71
2023/03/02 06:54:27;;;;;;;7.73;4.20;;;;;;;5.68;nan;-23975.31;5012324;28;20272;-71
2023/03/02 06:56:52;;;;;;;13.93;6.27;;;;;;;5.71;nan;-23976.16;5012025;28;20704;-71
2023/03/02 06:59:18;;;;;;;9.03;5.43;;;;;;;5.73;nan;-23976.88;5011946;28;20172;-71
2023/03/02 07:01:43;;;;;;;10.53;4.60;;;;;;;5.73;nan;-23976.75;5012165;28;20270;-72
2023/03/02 07:04:08;;;;;;;6.77;4.03;;;;;;;5.54;nan;-23971.34;5012247;28;20172;-72
2023/03/02 07:06:34;;;;;;;8.33;4.40;;;;;;;5.62;nan;-23973.75;5011868;28;20176;-70
2023/03/02 07:09:00;;;;;;;10.57;5.40;;;;;;;5.59;nan;-23972.75;5012241;28;20522;-71
2023/03/02 07:11:26;;;;;;;6.47;3.93;;;;;;;5.70;nan;-23976.03;5012245;28;20257;-71
2023/03/02 07:13:51;;;;;;;14.67;4.20;;;;;;;5.63;nan;-23973.91;5012073;28;20219;-70
2023/03/02 07:16:16;;;;;;;8.17;4.70;;;;;;;5.72;nan;-23976.47;5012066;28;20210;-70
2023/03/02 07:18:42;;;;;;;10.30;4.93;;;;;;;5.43;nan;-23968.22;5012259;28;20190;-71
2023/03/02 07:21:08;;;;;;;8.07;4.77;;;;;;;5.79;nan;-23978.59;5012111;28;20176;-69
2023/03/02 07:23:34;;;;;;;7.67;4.77;;;;;;;5.75;nan;-23977.44;5012221;28;20274;-71
2023/03/02 07:25:59;;;;;;;5.67;3.90;;;;;;;5.97;nan;-23983.56;5026846;28;20657;-72
2023/03/02 07:28:25;;;;;;;8.10;4.27;;;;;;;5.46;nan;-23969.06;5012198;28;20259;-71
2023/03/02 07:30:54;;;;;;;14.33;4.47;;;;;;;5.78;nan;-23978.16;5043506;28;20186;-71
2023/03/02 07:33:20;;;;;;;9.23;5.30;;;;;;;5.74;nan;-23977.03;5011954;28;20203;-71
2023/03/02 07:35:46;;;;;;;8.83;4.30;;;;;;;5.85;nan;-23980.16;5011707;28;20228;-70
2023/03/02 07:38:11;;;;;;;11.27;6.20;;;;;;;5.76;nan;-23977.75;5043677;28;20226;-72
2023/03/02 07:40:41;;;;;;;7.43;5.13;;;;;;;6.15;nan;-23988.69;5013916;28;20176;-70
2023/03/02 07:43:07;;;;;;;7.07;4.97;;;;;;;5.82;nan;-23979.31;5012394;28;20620;-72
2023/03/02 07:45:32;;;;;;;8.97;5.17;;;;;;;5.72;nan;-23976.47;5046002;28;20222;-70
2023/03/02 07:47:57;;;;;;;7.80;5.17;;;;;;;5.62;nan;-23973.75;5011065;28;20180;-70
2023/03/02 07:50:23;;;;;;;9.50;4.80;;;;;;;5.50;nan;-23970.22;5011318;28;20659;-71
2023/03/02 07:52:48;;;;;;;15.47;5.13;;;;;;;5.58;nan;-23972.63;5011133;28;20270;-70
2023/03/02 07:55:14;;;;;;;6.57;4.30;;;;;;;5.64;nan;-23974.31;5010742;28;20314;-71
2023/03/02 07:57:39;;;;;;;9.67;4.70;;;;;;;5.67;nan;-23975.03;5011752;28;20530;-71
2023/03/02 08:00:05;;;;;;;7.87;4.97;;;;;;;5.94;nan;-23982.56;5010198;28;20180;-70
2023/03/02 08:02:32;;;;;;;8.27;4.67;;;;;;;5.59;nan;-23972.75;5011400;28;20208;-71
2023/03/02 08:04:57;;;;;;;9.37;4.60;;;;;;;5.50;nan;-23970.34;5011632;28;20172;-71
2023/03/02 08:07:23;;;;;;;6.83;5.20;;;;;;;5.93;nan;-23982.44;5011137;28;20596;-70
2023/03/02 08:09:49;;;;;;;10.30;6.13;;;;;;;5.62;nan;-23973.63;5010153;28;20197;-71
2023/03/02 08:12:14;;;;;;;18.73;4.70;;;;;;;5.90;nan;-23981.56;5004973;28;20188;-71
2023/03/02 08:14:40;;;;;;;10.03;4.90;;;;;;;5.82;nan;-23979.16;5011384;28;20202;-71
2023/03/02 08:17:05;;;;;;;6.10;3.93;;;;;;;5.74;nan;-23977.03;5011001;28;20331;-71
2023/03/02 08:19:31;;;;;;;12.97;5.17;;;;;;;5.98;nan;-23983.72;5011303;28;20587;-71
2023/03/02 08:21:57;;;;;;;9.50;4.93;;;;;;;5.61;nan;-23973.47;5011417;28;20649;-71
2023/03/02 08:24:23;;;;;;;6.97;4.33;;;;;;;6.14;nan;-23988.25;5011289;28;20259;-71
2023/03/02 08:26:48;;;;;;;7.63;4.13;;;;;;;6.02;nan;-23984.84;5011177;28;20752;-71
2023/03/02 08:29:13;;;;;;;9.37;4.97;;;;;;;5.96;nan;-23983.13;5011025;28;20202;-71
2023/03/02 08:31:39;;;;;;;9.43;5.20;;;;;;;5.88;nan;-23981.00;5011028;28;20171;-71
2023/03/02 08:34:04;;;;;;;7.43;3.97;;;;;;;5.65;nan;-23974.59;5010117;28;20603;-72
2023/03/02 08:36:30;;;;;;;5.97;3.93;;;;;;;5.81;nan;-23978.88;5011144;28;20200;-70
2023/03/02 08:38:55;;;;;;;5.23;4.40;;;;;;;5.44;nan;-23968.50;5010815;28;20176;-71
2023/03/02 08:41:22;;;;;;;7.73;4.80;;;;;;;5.83;nan;-23979.44;5010967;28;20222;-71
2023/03/02 08:43:48;;;;;;;7.97;4.73;;;;;;;5.57;nan;-23972.19;5010932;28;20204;-71
2023/03/02 08:46:17;;;;;;;8.13;4.90;;;;;;;5.87;nan;-23980.59;5009575;28;20184;-72
2023/03/02 08:48:42;;;;;;;7.93;4.33;;;;;;;5.97;nan;-23983.41;5011993;28;20186;-72
2023/03/02 08:51:12;;;;;;;10.17;5.83;;;;;;;5.66;nan;-23974.75;5010736;28;20180;-71
2023/03/02 08:53:41;;;;;;;8.40;4.50;;;;;;;6.00;nan;-23984.28;5010322;28;20250;-72
2023/03/02 08:56:28;;;;;;;13.23;5.03;;;;;;;5.64;nan;-23974.19;5010511;28;20208;-71
2023/03/02 08:58:58;;;;;;;10.17;5.30;;;;;;;6.16;nan;-23988.81;5009478;28;20186;-71
2023/03/02 09:01:27;;;;;;;9.60;4.97;;;;;;;6.08;nan;-23986.69;4521923;28;21372;-72
2023/03/02 09:03:53;;;;;;;12.03;5.90;;;;;;;5.96;nan;-23983.28;4779062;28;20191;-72
2023/03/02 09:06:19;;;;;;;7.90;4.73;;;;;;;6.40;nan;-23995.50;5011028;28;20278;-71
2023/03/02 09:08:45;;;;;;;7.13;4.10;;;;;;;6.40;nan;-23995.63;5043065;28;20562;-72
2023/03/02 09:11:11;;;;;;;11.27;5.17;;;;;;;6.41;nan;-23995.78;5010880;28;20592;-72
2023/03/02 09:13:36;;;;;;;9.50;5.17;;;;;;;6.34;nan;-23993.94;5011008;28;20256;-71
2023/03/02 09:16:02;;;;;;;7.97;4.77;;;;;;;6.26;nan;-23991.66;5014026;28;20231;-71
2023/03/02 09:18:29;;;;;;;13.03;5.50;;;;;;;6.62;nan;-24001.75;5029061;28;20211;-72
2023/03/02 09:20:55;;;;;;;8.80;5.67;;;;;;;6.58;nan;-24000.59;5014200;28;20187;-71
2023/03/02 09:23:22;;;;;;;8.73;4.53;;;;;;;6.15;nan;-23988.69;5013004;28;20758;-73
2023/03/02 09:25:48;;;;;;;11.63;5.53;;;;;;;6.32;nan;-23993.38;5014313;28;20168;-71
2023/03/02 09:28:15;;;;;;;9.53;5.77;;;;;;;6.59;nan;-24001.03;5014043;28;20219;-72
2023/03/02 09:30:41;;;;;;;9.43;5.70;;;;;;;6.64;nan;-24002.44;5014000;28;20234;-72
2023/03/02 09:33:06;;;;;;;12.17;5.73;;;;;;;6.76;nan;-24005.72;5012754;28;20592;-71
2023/03/02 09:35:32;;;;;;;10.13;5.47;;;;;;;6.81;nan;-24007.13;5013922;28;20219;-71
2023/03/02 09:37:57;;;;;;;12.73;5.83;;;;;;;6.81;nan;-24007.13;5014175;28;20643;-72
2023/03/02 09:40:26;;;;;;;10.50;5.83;;;;;;;6.94;nan;-24010.69;5012330;28;20215;-71
2023/03/02 09:43:13;;;;;;;12.20;6.37;;;;;;;7.03;nan;-24013.22;5013795;28;20171;-71
2023/03/02 09:45:56;;;;;;;11.63;5.07;;;;;;;6.88;nan;-24008.97;5013593;28;20635;-72
2023/03/02 09:48:59;;;;;;;7.43;4.67;;;;;;;6.77;nan;-24005.84;5012226;28;20579;-71
2023/03/02 09:51:27;;;;;;;12.17;6.40;;;;;;;6.67;nan;-24003.16;5015944;28;20635;-71
2023/03/02 09:54:02;;;;;;;12.53;6.27;;;;;;;6.60;nan;-24001.31;5006683;28;20224;-72
2023/03/02 09:56:28;;;;;;;8.27;5.10;;;;;;;6.34;nan;-23993.94;5013086;28;20262;-73
2023/03/02 09:59:17;;;;;;;11.47;5.97;;;;;;;6.38;nan;-23994.94;5013359;28;20183;-71
2023/03/02 10:02:00;;;;;;;9.67;5.53;;;;;;;6.59;nan;-24000.88;5013320;28;20588;-71
2023/03/02 10:04:52;;;;;;;6.83;4.47;;;;;;;6.51;nan;-23998.63;5013120;28;20236;-72
2023/03/02 10:07:28;;;;;;;9.43;5.47;;;;;;;6.54;nan;-23999.63;5012954;28;20261;-71
2023/03/02 10:10:01;;;;;;;14.13;5.63;;;;;;;6.13;nan;-23988.13;5013075;28;20251;-72
2023/03/02 10:12:53;;;;;;;8.00;4.93;;;;;;;6.05;nan;-23985.69;5011812;28;20176;-71
2023/03/02 10:15:28;;;;;;;8.87;4.77;;;;;;;6.33;nan;-23993.50;5013009;28;20690;-71
2023/03/02 10:18:19;;;;;;;12.67;4.83;;;;;;;6.28;nan;-23992.22;5011338;28;20290;-71
2023/03/02 10:20:50;;;;;;;10.47;5.30;;;;;;;6.48;nan;-23997.75;5013072;28;20168;-71
2023/03/02 10:23:19;;;;;;;10.33;5.20;;;;;;;6.24;nan;-23990.94;5012018;28;20254;-72
2023/03/02 10:25:57;;;;;;;15.33;5.50;;;;;;;6.68;nan;-24003.44;5012660;28;20257;-73
2023/03/02 10:28:29;;;;;;;9.50;5.20;;;;;;;6.38;nan;-23994.94;5028173;28;20207;-71
2023/03/02 10:31:06;;;;;;;8.90;5.70;;;;;;;6.05;nan;-23985.84;5012490;28;20242;-71
2023/03/02 10:33:32;;;;;;;12.40;5.77;;;;;;;6.25;nan;-23991.22;5012192;28;20190;-71
2023/03/02 10:35:59;;;;;;;6.50;4.80;;;;;;;6.16;nan;-23988.97;5010882;28;20208;-71
2023/03/02 10:38:27;;;;;;;9.57;5.47;;;;;;;6.29;nan;-23992.38;5027457;28;20203;-70
2023/03/02 10:40:58;;;;;;;10.17;4.43;;;;;;;6.38;nan;-23994.94;5012581;28;20566;-72
2023/03/02 10:43:33;;;;;;;6.53;4.73;;;;;;;6.13;nan;-23988.13;5012071;28;20259;-72
2023/03/02 10:46:00;;;;;;;7.70;4.90;;;;;;;5.85;nan;-23980.00;5044123;28;20187;-73
2023/03/02 10:48:26;;;;;;;7.90;4.70;;;;;;;6.27;nan;-23991.81;5012285;28;20172;-70
2023/03/02 10:50:53;;;;;;;8.73;4.83;;;;;;;5.94;nan;-23982.56;5009485;28;20176;-72
2023/03/02 10:53:19;;;;;;;6.97;5.00;;;;;;;5.90;nan;-23981.44;5013456;28;20180;-71
2023/03/02 10:55:51;;;;;;;9.10;5.27;;;;;;;5.77;nan;-23978.03;5012917;28;20203;-72
2023/03/02 10:58:24;;;;;;;9.47;5.47;;;;;;;5.91;nan;-23981.72;5012642;28;20183;-71
2023/03/02 11:00:59;;;;;;;9.07;5.47;;;;;;;6.39;nan;-23995.22;5012585;28;20186;-71
2023/03/02 11:03:24;;;;;;;9.97;5.30;;;;;;;6.45;nan;-23996.91;5012811;28;20168;-71
2023/03/02 11:05:50;;;;;;;10.10;6.00;;;;;;;6.53;nan;-23999.31;5012627;28;20242;-71
2023/03/02 11:08:17;;;;;;;8.87;5.30;;;;;;;6.22;nan;-23990.66;5012355;28;20282;-73
2023/03/02 11:11:03;;;;;;;20.23;6.77;;;;;;;6.22;nan;-23990.53;5044409;28;20257;-71
2023/03/02 11:13:36;;;;;;;10.90;4.90;;;;;;;6.10;nan;-23987.25;5012297;28;20172;-72
2023/03/02 11:16:17;;;;;;;11.87;6.33;;;;;;;6.53;nan;-23999.19;5012993;28;20230;-70
2023/03/02 11:18:53;;;;;;;14.03;5.13;;;;;;;6.51;nan;-23998.75;5044257;28;20222;-72
2023/03/02 11:21:43;;;;;;;14.13;6.37;;;;;;;6.45;nan;-23996.91;5012084;28;20176;-71
2023/03/02 11:24:13;;;;;;;8.67;5.13;;;;;;;6.58;nan;-24000.59;5010841;28;20180;-71
2023/03/02 11:27:01;;;;;;;10.43;5.67;;;;;;;6.38;nan;-23995.06;5011843;28;20179;-71
2023/03/02 11:29:40;;;;;;;9.63;5.60;;;;;;;6.02;nan;-23984.97;5011895;28;20726;-71
2023/03/02 11:32:37;;;;;;;14.83;5.47;;;;;;;6.39;nan;-23995.34;5011731;28;20215;-70
2023/03/02 11:35:11;;;;;;;12.13;6.63;;;;;;;6.43;nan;-23996.50;5011625;28;20190;-70
2023/03/02 11:37:39;;;;;;;8.33;5.00;;;;;;;6.61;nan;-24001.59;5011193;28;20561;-70
2023/03/02 11:40:10;;;;;;;12.03;5.63;;;;;;;6.50;nan;-23998.34;5043677;28;20245;-71
2023/03/02 11:42:41;;;;;;;14.17;7.03;;;;;;;6.63;nan;-24002.03;5011272;28;20184;-71
2023/03/02 11:45:13;;;;;;;13.00;6.40;;;;;;;6.09;nan;-23986.84;5012024;28;20160;-72
2023/03/02 11:47:42;;;;;;;10.33;5.67;;;;;;;6.57;nan;-24000.31;5011976;28;20172;-71
2023/03/02 11:50:13;;;;;;;11.40;5.60;;;;;;;6.49;nan;-23998.19;5011914;28;20186;-71
2023/03/02 11:52:45;;;;;;;14.30;6.27;;;;;;;6.37;nan;-23994.66;5011864;28;20187;-71
2023/03/02 11:55:23;;;;;;;13.53;6.13;;;;;;;6.61;nan;-24001.47;5011418;28;20223;-71
2023/03/02 11:58:01;;;;;;;12.10;6.67;;;;;;;6.70;nan;-24003.88;5014066;28;20196;-72